Terminal Aerodrome Forecast
Issued by NWS

Home | Current Version | Previous Version | Text Only | Print | Product List | Glossary On
Versions: 1 2 3 4 5 6 7 8 9 10 11 12 13 14 15 16 17 18
825
FTUS45 KRIW 260520
TAFBPI
TAF
KBPI 260520Z 2606/2706 VRB06KT P6SM SCT070 SCT200
     FM261100 VRB04KT P6SM VCFG SCT005 SCT070
     FM261600 VRB05KT P6SM BKN070
     FM262000 31010KT P6SM VCTS SCT040CB BKN060
     FM270200 VRB05KT P6SM VCSH SCT030 BKN050=

USA.gov is the U.S. government's official web portal to all federal, state and local government web resources and services.